createdAt,value
2022-08-17T00:00:20.000Z,155
2022-08-17T00:01:37.000Z,153
2022-08-17T00:02:53.000Z,153
2022-08-17T00:04:09.000Z,153
2022-08-17T00:05:25.000Z,155
2022-08-17T00:06:41.000Z,156
2022-08-17T00:07:58.000Z,156
2022-08-17T00:09:14.000Z,155
2022-08-17T00:10:30.000Z,153
2022-08-17T00:11:45.000Z,154
2022-08-17T00:13:02.000Z,156
2022-08-17T00:14:18.000Z,155
2022-08-17T00:15:34.000Z,153
2022-08-17T00:16:50.000Z,156
2022-08-17T00:18:07.000Z,155
2022-08-17T00:19:23.000Z,155
2022-08-17T00:20:39.000Z,155
2022-08-17T00:21:55.000Z,155
2022-08-17T00:23:12.000Z,155
2022-08-17T00:24:28.000Z,157
2022-08-17T00:25:44.000Z,155
2022-08-17T00:27:00.000Z,153
2022-08-17T00:28:15.000Z,154
2022-08-17T00:29:32.000Z,156
2022-08-17T00:30:48.000Z,154
2022-08-17T00:32:04.000Z,150
2022-08-17T00:33:20.000Z,155
2022-08-17T00:34:37.000Z,157
2022-08-17T00:35:53.000Z,157
2022-08-17T00:37:09.000Z,155
2022-08-17T00:38:25.000Z,154
2022-08-17T00:39:42.000Z,154
2022-08-17T00:40:58.000Z,156
2022-08-17T00:42:14.000Z,154
2022-08-17T00:43:30.000Z,156
2022-08-17T00:44:45.000Z,154
2022-08-17T00:46:02.000Z,154
2022-08-17T00:47:18.000Z,154
2022-08-17T00:48:34.000Z,154
2022-08-17T00:49:50.000Z,156
2022-08-17T00:51:07.000Z,155
2022-08-17T00:52:23.000Z,155
2022-08-17T00:53:39.000Z,156
2022-08-17T00:54:55.000Z,157
2022-08-17T00:56:12.000Z,154
2022-08-17T00:57:28.000Z,155
2022-08-17T00:58:44.000Z,155
2022-08-17T01:00:00.000Z,155
2022-08-17T01:01:16.000Z,155
2022-08-17T01:02:32.000Z,153
2022-08-17T01:03:48.000Z,155
2022-08-17T01:05:04.000Z,156
2022-08-17T01:06:20.000Z,154
2022-08-17T01:07:37.000Z,155
2022-08-17T01:08:53.000Z,154
2022-08-17T01:10:08.000Z,155
2022-08-17T01:11:24.000Z,156
2022-08-17T01:12:40.000Z,155
2022-08-17T01:13:55.000Z,155
2022-08-17T01:15:10.000Z,154
2022-08-17T01:16:26.000Z,153
2022-08-17T01:17:43.000Z,156
2022-08-17T01:18:59.000Z,155
2022-08-17T01:20:15.000Z,153
2022-08-17T01:21:31.000Z,154
2022-08-17T01:22:48.000Z,154
2022-08-17T01:24:04.000Z,155
2022-08-17T01:25:20.000Z,153
2022-08-17T01:26:36.000Z,154
2022-08-17T01:27:53.000Z,154
2022-08-17T01:29:09.000Z,155
2022-08-17T01:30:25.000Z,156
2022-08-17T01:31:40.000Z,156
2022-08-17T01:32:56.000Z,155
2022-08-17T01:34:13.000Z,152
2022-08-17T01:35:29.000Z,155
2022-08-17T01:36:45.000Z,154
2022-08-17T01:38:01.000Z,157
2022-08-17T01:39:18.000Z,154
2022-08-17T01:40:33.000Z,154
2022-08-17T01:41:48.000Z,157
2022-08-17T01:43:03.000Z,154
2022-08-17T01:44:19.000Z,157
2022-08-17T01:45:35.000Z,155
2022-08-17T01:46:51.000Z,155
2022-08-17T01:48:07.000Z,153
2022-08-17T01:49:24.000Z,154
2022-08-17T01:50:40.000Z,154
2022-08-17T01:51:56.000Z,155
2022-08-17T01:53:12.000Z,155
2022-08-17T01:54:29.000Z,156
2022-08-17T01:55:45.000Z,155
2022-08-17T01:57:01.000Z,155
2022-08-17T01:58:17.000Z,155
2022-08-17T01:59:33.000Z,157
2022-08-17T02:00:49.000Z,155
2022-08-17T02:02:05.000Z,155
2022-08-17T02:03:21.000Z,153
2022-08-17T02:04:37.000Z,155
2022-08-17T02:05:54.000Z,154
2022-08-17T02:07:10.000Z,155
2022-08-17T02:08:26.000Z,154
2022-08-17T02:09:42.000Z,154
2022-08-17T02:10:59.000Z,156
2022-08-17T02:12:15.000Z,156
2022-08-17T02:13:31.000Z,157
2022-08-17T02:14:47.000Z,155
2022-08-17T02:16:04.000Z,153
2022-08-17T02:17:19.000Z,153
2022-08-17T02:18:35.000Z,154
2022-08-17T02:19:51.000Z,156
2022-08-17T02:21:08.000Z,156
2022-08-17T02:22:24.000Z,153
2022-08-17T02:23:40.000Z,155
2022-08-17T02:24:56.000Z,154
2022-08-17T02:26:12.000Z,156
2022-08-17T02:27:29.000Z,156
2022-08-17T02:28:45.000Z,155
2022-08-17T02:30:01.000Z,156
2022-08-17T02:31:17.000Z,153
2022-08-17T02:32:33.000Z,156
2022-08-17T02:33:48.000Z,157
2022-08-17T02:35:04.000Z,155
2022-08-17T02:36:20.000Z,154
2022-08-17T02:37:37.000Z,156
2022-08-17T02:38:53.000Z,155
2022-08-17T02:40:09.000Z,155
2022-08-17T02:41:24.000Z,155
2022-08-17T02:42:40.000Z,155
2022-08-17T02:43:56.000Z,157
2022-08-17T02:45:12.000Z,156
2022-08-17T02:46:28.000Z,157
2022-08-17T02:47:45.000Z,155
2022-08-17T02:49:01.000Z,155
2022-08-17T02:50:17.000Z,155
2022-08-17T02:51:33.000Z,157
2022-08-17T02:52:49.000Z,155
2022-08-17T02:54:06.000Z,153
2022-08-17T02:55:22.000Z,155
2022-08-17T02:56:38.000Z,156
2022-08-17T02:57:54.000Z,155
2022-08-17T02:59:10.000Z,156
2022-08-17T03:00:26.000Z,156
2022-08-17T03:01:42.000Z,156
2022-08-17T03:02:58.000Z,155
2022-08-17T03:04:15.000Z,157
2022-08-17T03:05:31.000Z,155
2022-08-17T03:06:47.000Z,156
2022-08-17T03:08:03.000Z,157
2022-08-17T03:09:20.000Z,156
2022-08-17T03:10:36.000Z,155
2022-08-17T03:11:52.000Z,154
2022-08-17T03:13:08.000Z,157
2022-08-17T03:14:24.000Z,156
2022-08-17T03:15:40.000Z,154
2022-08-17T03:16:56.000Z,157
2022-08-17T03:18:12.000Z,157
2022-08-17T03:19:27.000Z,157
2022-08-17T03:20:43.000Z,156
2022-08-17T03:21:58.000Z,155
2022-08-17T03:23:13.000Z,155
2022-08-17T03:24:29.000Z,157
2022-08-17T03:25:46.000Z,155
2022-08-17T03:27:02.000Z,155
2022-08-17T03:28:18.000Z,155
2022-08-17T03:29:34.000Z,157
2022-08-17T03:30:51.000Z,156
2022-08-17T03:32:07.000Z,156
2022-08-17T03:33:23.000Z,156
2022-08-17T03:34:39.000Z,158
2022-08-17T03:35:56.000Z,157
2022-08-17T03:37:11.000Z,157
2022-08-17T03:38:27.000Z,156
2022-08-17T03:39:43.000Z,159
2022-08-17T03:40:59.000Z,160
2022-08-17T03:42:16.000Z,157
2022-08-17T03:43:32.000Z,158
2022-08-17T03:44:48.000Z,161
2022-08-17T03:46:04.000Z,160
2022-08-17T03:47:21.000Z,160
2022-08-17T03:48:37.000Z,162
2022-08-17T03:49:53.000Z,165
2022-08-17T03:51:09.000Z,169
2022-08-17T03:52:26.000Z,170
2022-08-17T03:53:41.000Z,170
2022-08-17T03:54:57.000Z,134
2022-08-17T03:56:13.000Z,14
2022-08-17T03:57:30.000Z,17
2022-08-17T03:58:46.000Z,18
2022-08-17T04:00:02.000Z,20
2022-08-17T04:01:18.000Z,21
2022-08-17T04:02:34.000Z,22
2022-08-17T04:03:51.000Z,26
2022-08-17T04:05:07.000Z,31
2022-08-17T04:06:23.000Z,38
2022-08-17T04:07:39.000Z,55
2022-08-17T04:08:56.000Z,79
2022-08-17T04:10:11.000Z,85
2022-08-17T04:11:27.000Z,76
2022-08-17T04:12:43.000Z,87
2022-08-17T04:14:00.000Z,109
2022-08-17T04:15:16.000Z,136
2022-08-17T04:16:32.000Z,160
2022-08-17T04:17:48.000Z,187
2022-08-17T04:19:05.000Z,213
2022-08-17T04:20:21.000Z,244
2022-08-17T04:21:37.000Z,259
2022-08-17T04:22:53.000Z,270
2022-08-17T04:24:09.000Z,288
2022-08-17T04:25:26.000Z,305
2022-08-17T04:26:41.000Z,326
2022-08-17T04:27:57.000Z,342
2022-08-17T04:29:13.000Z,371
2022-08-17T04:30:30.000Z,386
2022-08-17T04:31:46.000Z,402
2022-08-17T04:33:02.000Z,429
2022-08-17T04:34:18.000Z,437
2022-08-17T04:35:35.000Z,450
2022-08-17T04:36:51.000Z,474
2022-08-17T04:38:07.000Z,492
2022-08-17T04:39:23.000Z,523
2022-08-17T04:40:40.000Z,550
2022-08-17T04:41:56.000Z,575
2022-08-17T04:43:11.000Z,604
2022-08-17T04:44:27.000Z,633
2022-08-17T04:45:43.000Z,660
2022-08-17T04:47:00.000Z,689
2022-08-17T04:48:16.000Z,729
2022-08-17T04:49:32.000Z,764
2022-08-17T04:50:48.000Z,806
2022-08-17T04:52:05.000Z,854
2022-08-17T04:53:21.000Z,904
2022-08-17T04:54:37.000Z,955
2022-08-17T04:55:53.000Z,1010
2022-08-17T04:57:10.000Z,1068
2022-08-17T04:58:26.000Z,1128
2022-08-17T04:59:42.000Z,1191
2022-08-17T05:00:57.000Z,1256
2022-08-17T05:02:14.000Z,1318
2022-08-17T05:03:30.000Z,1385
2022-08-17T05:04:46.000Z,1446
2022-08-17T05:06:02.000Z,1502
2022-08-17T05:07:18.000Z,1547
2022-08-17T05:08:35.000Z,1570
2022-08-17T05:09:51.000Z,1595
2022-08-17T05:11:07.000Z,1615
2022-08-17T05:12:23.000Z,1641
2022-08-17T05:13:40.000Z,1664
2022-08-17T05:14:56.000Z,1687
2022-08-17T05:16:12.000Z,1702
2022-08-17T05:17:27.000Z,1700
2022-08-17T05:18:44.000Z,1703
2022-08-17T05:20:00.000Z,1707
2022-08-17T05:21:16.000Z,1715
2022-08-17T05:22:32.000Z,1714
2022-08-17T05:23:48.000Z,1716
2022-08-17T05:25:05.000Z,1716
2022-08-17T05:26:21.000Z,1758
2022-08-17T05:27:37.000Z,1825
2022-08-17T05:28:53.000Z,1939
2022-08-17T05:30:10.000Z,2055
2022-08-17T05:31:26.000Z,2155
2022-08-17T05:32:42.000Z,2227
2022-08-17T05:33:57.000Z,2306
2022-08-17T05:35:14.000Z,2384
2022-08-17T05:36:30.000Z,2464
2022-08-17T05:37:46.000Z,2598
2022-08-17T05:39:02.000Z,2771
2022-08-17T05:40:19.000Z,2968
2022-08-17T05:41:35.000Z,3148
2022-08-17T05:42:51.000Z,3364
2022-08-17T05:44:07.000Z,3573
2022-08-17T05:45:23.000Z,3834
2022-08-17T05:46:40.000Z,4187
2022-08-17T05:47:56.000Z,4577
2022-08-17T05:49:12.000Z,4905
2022-08-17T05:50:27.000Z,5246
2022-08-17T05:51:44.000Z,5488
2022-08-17T05:53:00.000Z,5594
2022-08-17T05:54:16.000Z,5640
2022-08-17T05:55:32.000Z,5570
2022-08-17T05:56:49.000Z,5508
2022-08-17T05:58:05.000Z,5486
2022-08-17T05:59:21.000Z,5548
2022-08-17T06:00:37.000Z,5641
2022-08-17T06:01:54.000Z,5684
2022-08-17T06:03:10.000Z,5701
2022-08-17T06:04:26.000Z,5622
2022-08-17T06:05:42.000Z,5580
2022-08-17T06:06:57.000Z,5383
2022-08-17T06:08:14.000Z,5221
2022-08-17T06:09:30.000Z,5110
2022-08-17T06:10:46.000Z,5009
2022-08-17T06:12:02.000Z,4965
2022-08-17T06:13:19.000Z,4961
2022-08-17T06:14:35.000Z,4940
2022-08-17T06:15:51.000Z,4932
2022-08-17T06:17:07.000Z,4963
2022-08-17T06:18:24.000Z,5009
2022-08-17T06:19:40.000Z,5068
2022-08-17T06:20:56.000Z,5073
2022-08-17T06:22:12.000Z,5006
2022-08-17T06:23:28.000Z,4942
2022-08-17T06:24:44.000Z,4887
2022-08-17T06:26:00.000Z,4847
2022-08-17T06:27:16.000Z,4791
2022-08-17T06:28:32.000Z,4724
2022-08-17T06:29:49.000Z,4681
2022-08-17T06:31:05.000Z,4661
2022-08-17T06:32:21.000Z,4639
2022-08-17T06:33:37.000Z,4658
2022-08-17T06:34:54.000Z,4691
2022-08-17T06:36:10.000Z,4717
2022-08-17T06:37:26.000Z,4735
2022-08-17T06:38:42.000Z,4750
2022-08-17T06:39:58.000Z,4736
2022-08-17T06:41:14.000Z,4715
2022-08-17T06:42:30.000Z,4678
2022-08-17T06:43:46.000Z,4642
2022-08-17T06:45:03.000Z,4639
2022-08-17T06:46:19.000Z,4675
2022-08-17T06:47:35.000Z,4720
2022-08-17T06:48:51.000Z,4778
2022-08-17T06:50:07.000Z,4862
2022-08-17T06:51:24.000Z,4990
2022-08-17T06:52:40.000Z,5136
2022-08-17T06:53:56.000Z,5262
2022-08-17T06:55:12.000Z,5524
2022-08-17T06:56:28.000Z,5604
2022-08-17T06:57:44.000Z,5653
2022-08-17T06:59:00.000Z,5685
2022-08-17T07:00:16.000Z,5696
2022-08-17T07:01:33.000Z,5702
2022-08-17T07:02:49.000Z,5752
2022-08-17T07:04:05.000Z,5998
2022-08-17T07:05:21.000Z,6128
2022-08-17T07:06:37.000Z,6187
2022-08-17T07:07:54.000Z,6182
2022-08-17T07:09:10.000Z,6211
2022-08-17T07:10:26.000Z,6249
2022-08-17T07:11:42.000Z,6324
2022-08-17T07:12:58.000Z,6424
2022-08-17T07:14:14.000Z,6504
2022-08-17T07:15:30.000Z,6508
2022-08-17T07:16:46.000Z,6452
2022-08-17T07:18:03.000Z,6377
2022-08-17T07:19:19.000Z,6357
2022-08-17T07:20:35.000Z,6372
2022-08-17T07:21:51.000Z,6356
2022-08-17T07:23:08.000Z,6330
2022-08-17T07:24:24.000Z,6302
2022-08-17T07:25:40.000Z,6289
2022-08-17T07:26:56.000Z,6299
2022-08-17T07:28:12.000Z,6325
2022-08-17T07:29:28.000Z,6352
2022-08-17T07:30:44.000Z,6391
2022-08-17T07:32:00.000Z,6446
2022-08-17T07:33:16.000Z,6501
2022-08-17T07:34:33.000Z,6410
2022-08-17T07:35:49.000Z,6193
2022-08-17T07:37:05.000Z,6245
2022-08-17T07:38:21.000Z,6310
2022-08-17T07:39:38.000Z,6378
2022-08-17T07:40:54.000Z,6433
2022-08-17T07:42:10.000Z,6506
2022-08-17T07:43:26.000Z,6553
2022-08-17T07:44:43.000Z,6600
2022-08-17T07:45:58.000Z,6678
2022-08-17T07:47:14.000Z,6758
2022-08-17T07:48:30.000Z,6903
2022-08-17T07:49:46.000Z,7013
2022-08-17T07:51:03.000Z,7149
2022-08-17T07:52:18.000Z,7259
2022-08-17T07:53:34.000Z,7406
2022-08-17T07:54:50.000Z,7632
2022-08-17T07:56:07.000Z,7877
2022-08-17T07:57:23.000Z,8180
2022-08-17T07:58:39.000Z,8429
2022-08-17T07:59:55.000Z,8623
2022-08-17T08:01:12.000Z,8792
2022-08-17T08:02:28.000Z,8928
2022-08-17T08:03:44.000Z,9089
2022-08-17T08:05:00.000Z,9305
2022-08-17T08:06:17.000Z,9555
2022-08-17T08:07:33.000Z,9764
2022-08-17T08:08:48.000Z,9914
2022-08-17T08:10:04.000Z,9997
2022-08-17T08:11:20.000Z,10022
2022-08-17T08:12:37.000Z,9997
2022-08-17T08:13:53.000Z,9931
2022-08-17T08:15:09.000Z,9765
2022-08-17T08:16:25.000Z,9575
2022-08-17T08:17:42.000Z,9355
2022-08-17T08:18:58.000Z,9156
2022-08-17T08:20:14.000Z,9003
2022-08-17T08:21:30.000Z,8994
2022-08-17T08:22:47.000Z,9093
2022-08-17T08:24:03.000Z,9272
2022-08-17T08:25:18.000Z,9440
2022-08-17T08:26:34.000Z,9574
2022-08-17T08:27:51.000Z,9668
2022-08-17T08:29:07.000Z,9655
2022-08-17T08:30:23.000Z,9600
2022-08-17T08:31:39.000Z,9606
2022-08-17T08:32:55.000Z,9631
2022-08-17T08:34:12.000Z,9700
2022-08-17T08:35:28.000Z,9770
2022-08-17T08:36:44.000Z,9806
2022-08-17T08:38:00.000Z,9835
2022-08-17T08:39:17.000Z,9823
2022-08-17T08:40:33.000Z,9865
2022-08-17T08:41:48.000Z,9931
2022-08-17T08:43:04.000Z,9970
2022-08-17T08:44:21.000Z,10007
2022-08-17T08:45:37.000Z,9910
2022-08-17T08:46:53.000Z,9783
2022-08-17T08:48:09.000Z,9670
2022-08-17T08:49:26.000Z,9622
2022-08-17T08:50:41.000Z,9652
2022-08-17T08:51:56.000Z,9730
2022-08-17T08:53:11.000Z,9820
2022-08-17T08:54:27.000Z,9988
2022-08-17T08:55:43.000Z,10247
2022-08-17T08:56:59.000Z,10629
2022-08-17T08:58:15.000Z,11025
2022-08-17T08:59:32.000Z,11511
2022-08-17T09:00:48.000Z,12096
2022-08-17T09:02:04.000Z,12922
2022-08-17T09:03:20.000Z,13513
2022-08-17T09:04:36.000Z,14143
2022-08-17T09:05:53.000Z,14198
2022-08-17T09:07:09.000Z,14092
2022-08-17T09:08:25.000Z,13710
2022-08-17T09:09:41.000Z,13149
2022-08-17T09:10:57.000Z,12665
2022-08-17T09:12:13.000Z,12305
2022-08-17T09:13:29.000Z,12198
2022-08-17T09:14:45.000Z,12280
2022-08-17T09:16:02.000Z,12558
2022-08-17T09:17:18.000Z,12774
2022-08-17T09:18:34.000Z,13319
2022-08-17T09:19:50.000Z,13806
2022-08-17T09:21:07.000Z,14224
2022-08-17T09:22:23.000Z,14050
2022-08-17T09:23:39.467Z,13654
2022-08-17T09:24:55.000Z,13176
2022-08-17T09:26:11.000Z,12660
2022-08-17T09:27:27.000Z,12196
2022-08-17T09:28:43.000Z,11753
2022-08-17T09:29:59.000Z,11421
2022-08-17T09:31:15.000Z,11359
2022-08-17T09:32:32.000Z,11861
2022-08-17T09:33:48.000Z,11954
2022-08-17T09:35:04.000Z,11836
2022-08-17T09:36:20.000Z,11922
2022-08-17T09:37:37.000Z,11880
2022-08-17T09:38:53.000Z,11838
2022-08-17T09:40:09.000Z,11672
2022-08-17T09:41:25.000Z,11478
2022-08-17T09:42:41.000Z,11174
2022-08-17T09:43:57.000Z,10920
2022-08-17T09:45:13.000Z,10769
2022-08-17T09:46:29.000Z,10712
2022-08-17T09:47:45.000Z,10717
2022-08-17T09:49:02.000Z,10959
2022-08-17T09:50:18.000Z,11531
2022-08-17T09:51:34.000Z,12291
2022-08-17T09:52:50.000Z,13026
2022-08-17T09:54:07.000Z,13601
2022-08-17T09:55:23.000Z,13974
2022-08-17T09:56:39.000Z,14221
2022-08-17T09:57:55.000Z,14333
2022-08-17T09:59:12.000Z,14313
2022-08-17T10:00:27.000Z,14120
2022-08-17T10:01:43.000Z,13987
2022-08-17T10:02:59.000Z,13829
2022-08-17T10:04:15.000Z,13678
2022-08-17T10:05:32.000Z,13634
2022-08-17T10:06:48.000Z,13587
2022-08-17T10:08:04.000Z,13903
2022-08-17T10:09:20.000Z,14498
2022-08-17T10:10:37.000Z,15347
2022-08-17T10:11:53.000Z,16025
2022-08-17T10:13:09.000Z,16673
2022-08-17T10:14:25.000Z,17049
2022-08-17T10:15:42.000Z,17223
2022-08-17T10:16:57.000Z,16769
2022-08-17T10:18:13.000Z,16011
2022-08-17T10:19:29.000Z,15204
2022-08-17T10:20:46.000Z,14141
2022-08-17T10:22:02.000Z,12989
2022-08-17T10:23:18.000Z,11954
2022-08-17T10:24:34.000Z,11068
2022-08-17T10:25:50.000Z,10083
2022-08-17T10:27:07.000Z,9187
2022-08-17T10:28:23.000Z,8517
2022-08-17T10:29:39.000Z,8099
2022-08-17T10:30:55.000Z,7855
2022-08-17T10:32:12.000Z,7693
2022-08-17T10:33:27.000Z,7583
2022-08-17T10:34:43.000Z,7549
2022-08-17T10:35:59.000Z,7731
2022-08-17T10:37:16.000Z,7977
2022-08-17T10:38:32.000Z,8178
2022-08-17T10:39:48.000Z,8320
2022-08-17T10:41:04.000Z,8335
2022-08-17T10:42:21.000Z,8222
2022-08-17T10:43:37.000Z,8047
2022-08-17T10:44:52.000Z,7868
2022-08-17T10:46:07.000Z,7633
2022-08-17T10:47:23.000Z,7450
2022-08-17T10:48:38.000Z,7407
2022-08-17T10:49:54.000Z,7445
2022-08-17T10:51:10.000Z,7682
2022-08-17T10:52:27.000Z,8118
2022-08-17T10:53:43.000Z,8686
2022-08-17T10:54:59.000Z,9273
2022-08-17T10:56:15.000Z,9706
2022-08-17T10:57:31.000Z,9900
2022-08-17T10:58:48.000Z,9759
2022-08-17T11:00:04.000Z,9470
2022-08-17T11:01:20.000Z,9391
2022-08-17T11:02:36.000Z,9708
2022-08-17T11:03:53.000Z,9933
2022-08-17T11:05:08.000Z,9970
2022-08-17T11:06:24.000Z,10195
2022-08-17T11:07:40.000Z,10454
2022-08-17T11:08:57.000Z,10476
2022-08-17T11:10:13.000Z,10409
2022-08-17T11:11:29.000Z,10566
2022-08-17T11:12:45.000Z,10931
2022-08-17T11:14:02.000Z,10851
2022-08-17T11:15:18.000Z,10263
2022-08-17T11:16:34.000Z,9900
2022-08-17T11:17:50.000Z,9850
2022-08-17T11:19:06.000Z,9977
2022-08-17T11:20:23.000Z,10003
2022-08-17T11:21:38.000Z,10405
2022-08-17T11:22:54.000Z,11082
2022-08-17T11:24:10.000Z,11635
2022-08-17T11:25:27.000Z,11597
2022-08-17T11:26:43.000Z,11287
2022-08-17T11:27:59.000Z,11454
2022-08-17T11:29:15.000Z,11789
2022-08-17T11:30:31.000Z,12155
2022-08-17T11:31:46.000Z,12283
2022-08-17T11:33:02.000Z,12306
2022-08-17T11:34:18.000Z,12920
2022-08-17T11:35:34.000Z,14117
2022-08-17T11:36:49.000Z,15424
2022-08-17T11:38:05.000Z,15779
2022-08-17T11:39:21.000Z,16230
2022-08-17T11:40:38.000Z,16518
2022-08-17T11:41:54.000Z,16570
2022-08-17T11:43:10.000Z,15752
2022-08-17T11:44:26.000Z,14103
2022-08-17T11:45:42.000Z,12602
2022-08-17T11:46:59.000Z,12062
2022-08-17T11:48:15.000Z,11883
2022-08-17T11:49:31.000Z,12780
2022-08-17T11:50:47.000Z,14241
2022-08-17T11:52:04.000Z,15688
2022-08-17T11:53:19.000Z,16590
2022-08-17T11:54:35.000Z,17313
2022-08-17T11:55:51.000Z,16417
2022-08-17T11:57:08.000Z,14415
2022-08-17T11:58:24.000Z,12423
2022-08-17T11:59:40.000Z,11837
2022-08-17T12:00:56.000Z,10547
2022-08-17T12:02:13.000Z,9148
2022-08-17T12:03:29.000Z,7765
2022-08-17T12:04:45.000Z,6553
2022-08-17T12:06:01.000Z,5777
2022-08-17T12:07:16.000Z,5732
2022-08-17T12:08:33.000Z,6034
2022-08-17T12:09:49.000Z,6746
2022-08-17T12:11:05.000Z,6696
2022-08-17T12:12:21.000Z,6602
2022-08-17T12:13:38.000Z,7493
2022-08-17T12:14:54.000Z,6578
2022-08-17T12:16:10.000Z,5618
2022-08-17T12:17:26.000Z,4813
2022-08-17T12:18:43.000Z,4061
2022-08-17T12:19:59.000Z,3389
2022-08-17T12:21:15.000Z,3495
2022-08-17T12:22:31.000Z,3511
2022-08-17T12:23:47.000Z,3593
2022-08-17T12:25:03.000Z,4517
2022-08-17T12:26:19.000Z,7851
2022-08-17T12:27:35.000Z,9982
2022-08-17T12:28:51.000Z,9979
2022-08-17T12:30:08.000Z,8794
2022-08-17T12:31:24.000Z,7704
2022-08-17T12:32:40.000Z,6489
2022-08-17T12:33:56.000Z,5587
2022-08-17T12:35:13.000Z,6095
2022-08-17T12:36:29.000Z,6592
2022-08-17T12:37:45.000Z,7004
2022-08-17T12:39:01.000Z,7835
2022-08-17T12:40:17.000Z,9156
2022-08-17T12:41:33.000Z,10853
2022-08-17T12:42:49.000Z,10123
2022-08-17T12:44:05.000Z,9262
2022-08-17T12:45:22.000Z,8835
2022-08-17T12:46:38.000Z,9625
2022-08-17T12:47:54.000Z,10532
2022-08-17T12:49:10.000Z,12302
2022-08-17T12:50:26.000Z,13710
2022-08-17T12:51:43.000Z,13640
2022-08-17T12:52:59.000Z,12700
2022-08-17T12:54:15.000Z,11757
2022-08-17T12:55:31.000Z,10837
2022-08-17T12:56:47.000Z,10071
2022-08-17T12:58:03.000Z,9770
2022-08-17T12:59:19.000Z,9711
2022-08-17T13:00:35.000Z,9699
2022-08-17T13:01:52.000Z,9911
2022-08-17T13:03:08.000Z,10278
2022-08-17T13:04:24.000Z,9692
2022-08-17T13:05:40.000Z,9503
2022-08-17T13:06:57.000Z,9478
2022-08-17T13:08:13.000Z,9846
2022-08-17T13:09:29.000Z,12008
2022-08-17T13:10:45.000Z,13614
2022-08-17T13:12:01.000Z,14298
2022-08-17T13:13:17.000Z,17358
2022-08-17T13:14:33.000Z,19676
2022-08-17T13:15:49.000Z,20085
2022-08-17T13:17:05.000Z,19859
2022-08-17T13:18:22.000Z,18626
2022-08-17T13:19:38.000Z,16945
2022-08-17T13:20:54.000Z,15211
2022-08-17T13:22:10.000Z,14127
2022-08-17T13:23:27.000Z,12485
2022-08-17T13:24:43.000Z,11588
2022-08-17T13:25:59.000Z,11575
2022-08-17T13:27:15.000Z,10775
2022-08-17T13:28:32.000Z,9678
2022-08-17T13:29:47.000Z,9151
2022-08-17T13:31:03.000Z,9074
2022-08-17T13:32:19.000Z,8802
2022-08-17T13:33:35.000Z,8284
2022-08-17T13:34:52.000Z,8434
2022-08-17T13:36:08.000Z,8557
2022-08-17T13:37:24.000Z,7944
2022-08-17T13:38:40.000Z,8164
2022-08-17T13:39:57.000Z,8120
2022-08-17T13:41:13.000Z,8877
2022-08-17T13:42:29.000Z,9684
2022-08-17T13:43:45.000Z,9458
2022-08-17T13:45:02.000Z,10304
2022-08-17T13:46:17.000Z,12365
2022-08-17T13:47:33.000Z,13654
2022-08-17T13:48:49.000Z,12764
2022-08-17T13:50:06.000Z,11550
2022-08-17T13:51:22.000Z,10784
2022-08-17T13:52:38.000Z,10850
2022-08-17T13:53:54.000Z,13303
2022-08-17T13:55:10.000Z,12494
2022-08-17T13:56:27.000Z,15756
2022-08-17T13:57:43.000Z,11401
2022-08-17T13:58:59.000Z,23582
2022-08-17T14:00:15.000Z,34078
2022-08-17T14:01:32.000Z,26580
2022-08-17T14:02:47.000Z,9974
2022-08-17T14:04:03.000Z,67140
2022-08-17T14:05:19.000Z,11491
2022-08-17T14:06:36.000Z,78119
2022-08-17T14:07:51.000Z,75630
2022-08-17T14:09:06.000Z,75259
2022-08-17T14:10:21.000Z,76860
2022-08-17T14:11:37.000Z,75905
2022-08-17T14:12:53.000Z,74400
2022-08-17T14:14:09.000Z,75503
2022-08-17T14:15:25.000Z,75971
2022-08-17T14:16:42.000Z,76871
2022-08-17T14:17:58.000Z,75607
2022-08-17T14:19:14.000Z,75048
2022-08-17T14:20:30.000Z,74155
2022-08-17T14:21:46.000Z,75119
2022-08-17T14:23:03.000Z,75030
2022-08-17T14:24:19.000Z,74995
2022-08-17T14:25:35.000Z,74362
2022-08-17T14:26:51.000Z,67493
2022-08-17T14:28:07.000Z,15988
2022-08-17T14:29:23.000Z,38453
2022-08-17T14:30:39.000Z,31900
2022-08-17T14:31:55.000Z,20203
2022-08-17T14:33:12.000Z,32324
2022-08-17T14:34:28.000Z,27956
2022-08-17T14:35:44.000Z,34262
2022-08-17T14:36:59.000Z,36172
2022-08-17T14:38:15.000Z,31896
2022-08-17T14:39:31.000Z,32485
2022-08-17T14:40:46.000Z,30273
2022-08-17T14:42:01.000Z,32887
2022-08-17T14:43:18.000Z,37903
2022-08-17T14:44:34.000Z,34290
2022-08-17T14:45:50.000Z,33152
2022-08-17T14:47:06.000Z,34292
2022-08-17T14:48:23.000Z,34521
2022-08-17T14:49:39.000Z,34805
2022-08-17T14:50:55.000Z,28879
2022-08-17T14:52:11.000Z,28968
2022-08-17T14:53:27.000Z,32131
2022-08-17T14:54:44.000Z,39067
2022-08-17T14:56:00.000Z,33889
2022-08-17T14:57:16.000Z,29123
2022-08-17T14:58:31.000Z,30195
2022-08-17T14:59:48.000Z,31804
2022-08-17T15:01:04.000Z,33002
2022-08-17T15:02:20.000Z,31265
2022-08-17T15:03:36.000Z,34677
2022-08-17T15:04:53.000Z,33726
2022-08-17T15:06:09.000Z,22541
2022-08-17T15:07:24.000Z,14424
2022-08-17T15:08:39.000Z,8789
2022-08-17T15:09:56.000Z,30231
2022-08-17T15:11:11.000Z,30929
2022-08-17T15:12:26.000Z,30089
2022-08-17T15:13:42.000Z,27581
2022-08-17T15:14:59.000Z,28347
2022-08-17T15:16:15.000Z,29816
2022-08-17T15:17:31.000Z,27481
2022-08-17T15:18:47.000Z,28534
2022-08-17T15:20:03.000Z,26665
2022-08-17T15:21:20.000Z,26198
2022-08-17T15:22:36.000Z,25112
2022-08-17T15:23:52.000Z,25290
2022-08-17T15:25:08.000Z,23339
2022-08-17T15:26:25.000Z,24996
2022-08-17T15:27:41.000Z,24509
2022-08-17T15:28:56.000Z,22191
2022-08-17T15:30:12.000Z,21478
2022-08-17T15:31:29.000Z,20827
2022-08-17T15:32:45.000Z,8420
2022-08-17T15:34:01.000Z,23323
2022-08-17T15:35:17.000Z,17561
2022-08-17T15:36:34.000Z,13827
2022-08-17T15:37:49.000Z,12210
2022-08-17T15:39:04.000Z,10161
2022-08-17T15:40:20.000Z,8648
2022-08-17T15:41:36.000Z,9051
2022-08-17T15:42:51.000Z,8041
2022-08-17T15:44:07.000Z,9045
2022-08-17T15:45:23.000Z,7481
2022-08-17T15:46:40.000Z,7890
2022-08-17T15:47:56.000Z,4677
2022-08-17T15:49:12.000Z,12822
2022-08-17T15:50:28.000Z,13377
2022-08-17T15:51:44.000Z,13054
2022-08-17T15:53:01.000Z,9288
2022-08-17T15:54:17.000Z,11842
2022-08-17T15:55:33.000Z,9511
2022-08-17T15:56:49.000Z,8835
2022-08-17T15:58:06.000Z,7578
2022-08-17T15:59:22.000Z,7064
2022-08-17T16:00:37.000Z,6419
2022-08-17T16:01:53.000Z,5408
2022-08-17T16:03:10.000Z,4645
2022-08-17T16:04:26.000Z,5066
2022-08-17T16:05:42.000Z,5169
2022-08-17T16:06:58.000Z,5344
2022-08-17T16:08:15.000Z,5057
2022-08-17T16:09:31.000Z,4514
2022-08-17T16:10:46.000Z,4354
2022-08-17T16:12:01.000Z,4324
2022-08-17T16:13:17.000Z,4202
2022-08-17T16:14:33.000Z,4055
2022-08-17T16:15:48.000Z,1682
2022-08-17T16:17:04.000Z,2659
2022-08-17T16:18:20.000Z,10599
2022-08-17T16:19:37.000Z,4943
2022-08-17T16:20:53.000Z,12030
2022-08-17T16:22:08.000Z,14899
2022-08-17T16:23:24.000Z,16169
2022-08-17T16:24:41.000Z,18168
2022-08-17T16:25:57.000Z,15143
2022-08-17T16:27:13.000Z,19162
2022-08-17T16:28:29.000Z,15830
2022-08-17T16:29:46.000Z,10311
2022-08-17T16:31:02.000Z,8270
2022-08-17T16:32:18.000Z,5736
2022-08-17T16:33:34.000Z,9084
2022-08-17T16:34:51.000Z,5988
2022-08-17T16:36:07.000Z,5747
2022-08-17T16:37:23.000Z,4785
2022-08-17T16:38:38.000Z,13280
2022-08-17T16:39:54.000Z,10587
2022-08-17T16:41:11.000Z,9687
2022-08-17T16:42:26.000Z,9430
2022-08-17T16:43:41.000Z,9647
2022-08-17T16:44:57.000Z,8883
2022-08-17T16:46:13.000Z,8127
2022-08-17T16:47:28.000Z,7713
2022-08-17T16:48:44.000Z,7220
2022-08-17T16:50:00.000Z,6893
2022-08-17T16:51:17.000Z,6615
2022-08-17T16:52:33.000Z,6783